sensor_id;sensor_type;location;lat;lon;timestamp;P1;durP1;ratioP1;P2;durP2;ratioP2
10479;SDS011;12789;42.610;23.040;2023-06-05T00:00:55;26.02;;;16.50;;
10479;SDS011;12789;42.610;23.040;2023-06-05T00:03:22;22.90;;;16.90;;
10479;SDS011;12789;42.610;23.040;2023-06-05T00:05:52;27.83;;;15.75;;
10479;SDS011;12789;42.610;23.040;2023-06-05T00:08:19;24.13;;;15.90;;
10479;SDS011;12789;42.610;23.040;2023-06-05T00:10:45;27.20;;;15.90;;
10479;SDS011;12789;42.610;23.040;2023-06-05T00:13:14;19.73;;;14.70;;
10479;SDS011;12789;42.610;23.040;2023-06-05T00:15:41;17.13;;;14.13;;
10479;SDS011;12789;42.610;23.040;2023-06-05T00:18:08;21.50;;;14.27;;
10479;SDS011;12789;42.610;23.040;2023-06-05T00:20:35;18.90;;;13.82;;
10479;SDS011;12789;42.610;23.040;2023-06-05T00:23:02;21.83;;;14.32;;
10479;SDS011;12789;42.610;23.040;2023-06-05T00:25:28;20.17;;;12.85;;
10479;SDS011;12789;42.610;23.040;2023-06-05T00:27:55;20.63;;;13.60;;
10479;SDS011;12789;42.610;23.040;2023-06-05T00:30:23;21.33;;;14.05;;
10479;SDS011;12789;42.610;23.040;2023-06-05T00:32:49;19.80;;;14.05;;
10479;SDS011;12789;42.610;23.040;2023-06-05T00:35:16;19.67;;;14.85;;
10479;SDS011;12789;42.610;23.040;2023-06-05T00:37:43;17.63;;;13.60;;
10479;SDS011;12789;42.610;23.040;2023-06-05T00:40:12;17.13;;;14.07;;
10479;SDS011;12789;42.610;23.040;2023-06-05T00:42:38;16.08;;;13.40;;
10479;SDS011;12789;42.610;23.040;2023-06-05T00:45:05;19.63;;;15.07;;
10479;SDS011;12789;42.610;23.040;2023-06-05T00:47:34;25.17;;;15.20;;
10479;SDS011;12789;42.610;23.040;2023-06-05T00:50:00;20.58;;;15.50;;
10479;SDS011;12789;42.610;23.040;2023-06-05T00:52:28;21.83;;;16.17;;
10479;SDS011;12789;42.610;23.040;2023-06-05T00:54:55;28.55;;;17.23;;
10479;SDS011;12789;42.610;23.040;2023-06-05T00:57:21;46.22;;;19.15;;
10479;SDS011;12789;42.610;23.040;2023-06-05T00:59:49;77.45;;;21.67;;
10479;SDS011;12789;42.610;23.040;2023-06-05T01:02:18;72.78;;;20.63;;
10479;SDS011;12789;42.610;23.040;2023-06-05T01:04:47;85.07;;;24.88;;
10479;SDS011;12789;42.610;23.040;2023-06-05T01:07:14;86.15;;;23.50;;
10479;SDS011;12789;42.610;23.040;2023-06-05T01:09:41;87.22;;;23.85;;
10479;SDS011;12789;42.610;23.040;2023-06-05T01:12:11;70.90;;;22.80;;
10479;SDS011;12789;42.610;23.040;2023-06-05T01:14:39;79.22;;;23.52;;
10479;SDS011;12789;42.610;23.040;2023-06-05T01:17:11;73.68;;;23.83;;
10479;SDS011;12789;42.610;23.040;2023-06-05T01:19:38;77.32;;;24.05;;
10479;SDS011;12789;42.610;23.040;2023-06-05T01:22:07;74.03;;;24.33;;
10479;SDS011;12789;42.610;23.040;2023-06-05T01:24:35;104.88;;;24.00;;
10479;SDS011;12789;42.610;23.040;2023-06-05T01:27:02;64.78;;;24.88;;
10479;SDS011;12789;42.610;23.040;2023-06-05T01:29:35;78.32;;;25.08;;
10479;SDS011;12789;42.610;23.040;2023-06-05T01:32:06;70.88;;;23.25;;
10479;SDS011;12789;42.610;23.040;2023-06-05T01:34:37;61.50;;;21.58;;
10479;SDS011;12789;42.610;23.040;2023-06-05T01:37:09;83.50;;;21.00;;
10479;SDS011;12789;42.610;23.040;2023-06-05T01:39:39;60.95;;;22.02;;
10479;SDS011;12789;42.610;23.040;2023-06-05T01:42:07;60.97;;;22.77;;
10479;SDS011;12789;42.610;23.040;2023-06-05T01:44:35;55.42;;;20.35;;
10479;SDS011;12789;42.610;23.040;2023-06-05T01:47:02;43.78;;;19.80;;
10479;SDS011;12789;42.610;23.040;2023-06-05T01:49:29;44.72;;;19.55;;
10479;SDS011;12789;42.610;23.040;2023-06-05T01:51:56;46.35;;;20.00;;
10479;SDS011;12789;42.610;23.040;2023-06-05T01:54:23;49.75;;;19.95;;
10479;SDS011;12789;42.610;23.040;2023-06-05T01:56:54;43.78;;;18.95;;
10479;SDS011;12789;42.610;23.040;2023-06-05T01:59:21;44.47;;;19.42;;
10479;SDS011;12789;42.610;23.040;2023-06-05T02:01:47;39.80;;;18.15;;
10479;SDS011;12789;42.610;23.040;2023-06-05T02:04:14;41.47;;;19.00;;
10479;SDS011;12789;42.610;23.040;2023-06-05T02:06:44;37.53;;;18.88;;
10479;SDS011;12789;42.610;23.040;2023-06-05T02:09:10;115.35;;;20.85;;
10479;SDS011;12789;42.610;23.040;2023-06-05T02:11:38;38.05;;;19.80;;
10479;SDS011;12789;42.610;23.040;2023-06-05T02:14:09;38.97;;;19.45;;
10479;SDS011;12789;42.610;23.040;2023-06-05T02:16:38;39.42;;;19.08;;
10479;SDS011;12789;42.610;23.040;2023-06-05T02:19:05;41.13;;;21.27;;
10479;SDS011;12789;42.610;23.040;2023-06-05T02:21:32;43.97;;;21.98;;
10479;SDS011;12789;42.610;23.040;2023-06-05T02:23:59;46.80;;;20.80;;
10479;SDS011;12789;42.610;23.040;2023-06-05T02:26:26;42.72;;;21.27;;
10479;SDS011;12789;42.610;23.040;2023-06-05T02:28:53;36.70;;;19.27;;
10479;SDS011;12789;42.610;23.040;2023-06-05T02:31:22;43.42;;;20.88;;
10479;SDS011;12789;42.610;23.040;2023-06-05T02:33:51;49.00;;;21.52;;
10479;SDS011;12789;42.610;23.040;2023-06-05T02:36:18;42.67;;;20.42;;
10479;SDS011;12789;42.610;23.040;2023-06-05T02:38:45;36.63;;;21.45;;
10479;SDS011;12789;42.610;23.040;2023-06-05T02:41:14;90.38;;;20.95;;
10479;SDS011;12789;42.610;23.040;2023-06-05T02:43:41;48.28;;;21.55;;
10479;SDS011;12789;42.610;23.040;2023-06-05T02:46:07;49.50;;;22.30;;
10479;SDS011;12789;42.610;23.040;2023-06-05T02:48:37;46.08;;;22.27;;
10479;SDS011;12789;42.610;23.040;2023-06-05T02:51:04;50.85;;;20.35;;
10479;SDS011;12789;42.610;23.040;2023-06-05T02:53:34;37.58;;;21.05;;
10479;SDS011;12789;42.610;23.040;2023-06-05T02:56:02;40.35;;;21.70;;
10479;SDS011;12789;42.610;23.040;2023-06-05T02:58:29;40.25;;;21.45;;
10479;SDS011;12789;42.610;23.040;2023-06-05T03:00:56;42.97;;;22.20;;
10479;SDS011;12789;42.610;23.040;2023-06-05T03:03:26;52.90;;;22.02;;
10479;SDS011;12789;42.610;23.040;2023-06-05T03:05:55;46.42;;;21.65;;
10479;SDS011;12789;42.610;23.040;2023-06-05T03:08:22;91.22;;;21.63;;
10479;SDS011;12789;42.610;23.040;2023-06-05T03:10:49;49.22;;;21.00;;
10479;SDS011;12789;42.610;23.040;2023-06-05T03:13:16;47.28;;;19.48;;
10479;SDS011;12789;42.610;23.040;2023-06-05T03:15:43;129.48;;;19.17;;
10479;SDS011;12789;42.610;23.040;2023-06-05T03:18:11;39.15;;;18.80;;
10479;SDS011;12789;42.610;23.040;2023-06-05T03:20:39;53.30;;;19.70;;
10479;SDS011;12789;42.610;23.040;2023-06-05T03:23:09;40.95;;;19.00;;
10479;SDS011;12789;42.610;23.040;2023-06-05T03:25:36;50.30;;;16.25;;
10479;SDS011;12789;42.610;23.040;2023-06-05T03:28:03;72.78;;;17.08;;
10479;SDS011;12789;42.610;23.040;2023-06-05T03:30:29;79.70;;;17.20;;
10479;SDS011;12789;42.610;23.040;2023-06-05T03:32:56;48.40;;;18.38;;
10479;SDS011;12789;42.610;23.040;2023-06-05T03:35:23;69.85;;;17.05;;
10479;SDS011;12789;42.610;23.040;2023-06-05T03:37:50;36.20;;;17.73;;
10479;SDS011;12789;42.610;23.040;2023-06-05T03:40:18;25.27;;;15.85;;
10479;SDS011;12789;42.610;23.040;2023-06-05T03:42:45;31.45;;;16.67;;
10479;SDS011;12789;42.610;23.040;2023-06-05T03:45:13;27.40;;;15.68;;
10479;SDS011;12789;42.610;23.040;2023-06-05T03:47:40;27.63;;;14.68;;
10479;SDS011;12789;42.610;23.040;2023-06-05T03:50:09;31.08;;;15.93;;
10479;SDS011;12789;42.610;23.040;2023-06-05T03:52:36;23.13;;;14.13;;
10479;SDS011;12789;42.610;23.040;2023-06-05T03:55:05;29.77;;;14.18;;
10479;SDS011;12789;42.610;23.040;2023-06-05T03:57:34;27.98;;;14.60;;
10479;SDS011;12789;42.610;23.040;2023-06-05T04:00:03;25.65;;;14.52;;
10479;SDS011;12789;42.610;23.040;2023-06-05T04:02:30;25.85;;;14.38;;
10479;SDS011;12789;42.610;23.040;2023-06-05T04:04:56;23.75;;;13.30;;
10479;SDS011;12789;42.610;23.040;2023-06-05T04:07:23;29.75;;;14.35;;
10479;SDS011;12789;42.610;23.040;2023-06-05T04:09:50;33.22;;;14.55;;
10479;SDS011;12789;42.610;23.040;2023-06-05T04:12:17;30.88;;;14.73;;
10479;SDS011;12789;42.610;23.040;2023-06-05T04:14:46;27.95;;;14.02;;
10479;SDS011;12789;42.610;23.040;2023-06-05T04:17:13;32.22;;;15.60;;
10479;SDS011;12789;42.610;23.040;2023-06-05T04:19:40;34.70;;;17.67;;
10479;SDS011;12789;42.610;23.040;2023-06-05T04:22:06;50.42;;;16.65;;
10479;SDS011;12789;42.610;23.040;2023-06-05T04:24:33;38.67;;;15.55;;
10479;SDS011;12789;42.610;23.040;2023-06-05T04:27:04;48.47;;;17.15;;
10479;SDS011;12789;42.610;23.040;2023-06-05T04:29:33;53.88;;;18.30;;
10479;SDS011;12789;42.610;23.040;2023-06-05T04:32:01;45.92;;;17.98;;
10479;SDS011;12789;42.610;23.040;2023-06-05T04:34:28;46.40;;;19.80;;
10479;SDS011;12789;42.610;23.040;2023-06-05T04:36:56;44.42;;;20.75;;
10479;SDS011;12789;42.610;23.040;2023-06-05T04:39:23;48.70;;;21.25;;
10479;SDS011;12789;42.610;23.040;2023-06-05T04:41:49;44.22;;;19.58;;
10479;SDS011;12789;42.610;23.040;2023-06-05T04:44:16;48.95;;;20.25;;
10479;SDS011;12789;42.610;23.040;2023-06-05T04:46:44;54.42;;;20.10;;
10479;SDS011;12789;42.610;23.040;2023-06-05T04:49:13;49.78;;;18.73;;
10479;SDS011;12789;42.610;23.040;2023-06-05T04:51:39;49.75;;;19.67;;
10479;SDS011;12789;42.610;23.040;2023-06-05T04:54:07;48.92;;;18.15;;
10479;SDS011;12789;42.610;23.040;2023-06-05T04:56:34;56.10;;;19.58;;
10479;SDS011;12789;42.610;23.040;2023-06-05T04:59:02;66.93;;;19.42;;
10479;SDS011;12789;42.610;23.040;2023-06-05T05:01:29;49.15;;;17.88;;
10479;SDS011;12789;42.610;23.040;2023-06-05T05:03:55;61.90;;;19.25;;
10479;SDS011;12789;42.610;23.040;2023-06-05T05:06:24;56.88;;;20.23;;
10479;SDS011;12789;42.610;23.040;2023-06-05T05:08:51;65.03;;;21.08;;
10479;SDS011;12789;42.610;23.040;2023-06-05T05:11:17;76.40;;;21.38;;
10479;SDS011;12789;42.610;23.040;2023-06-05T05:13:44;70.25;;;19.95;;
10479;SDS011;12789;42.610;23.040;2023-06-05T05:16:11;60.25;;;19.02;;
10479;SDS011;12789;42.610;23.040;2023-06-05T05:18:39;75.75;;;22.60;;
10479;SDS011;12789;42.610;23.040;2023-06-05T05:21:06;89.82;;;22.52;;
10479;SDS011;12789;42.610;23.040;2023-06-05T05:23:34;90.78;;;23.65;;
10479;SDS011;12789;42.610;23.040;2023-06-05T05:26:01;92.47;;;24.48;;
10479;SDS011;12789;42.610;23.040;2023-06-05T05:28:29;87.25;;;23.90;;
10479;SDS011;12789;42.610;23.040;2023-06-05T05:30:55;84.05;;;24.17;;
10479;SDS011;12789;42.610;23.040;2023-06-05T05:33:24;88.13;;;23.38;;
10479;SDS011;12789;42.610;23.040;2023-06-05T05:35:50;101.18;;;26.05;;
10479;SDS011;12789;42.610;23.040;2023-06-05T05:38:19;120.80;;;28.52;;
10479;SDS011;12789;42.610;23.040;2023-06-05T05:40:47;132.07;;;29.33;;
10479;SDS011;12789;42.610;23.040;2023-06-05T05:43:13;112.63;;;29.80;;
10479;SDS011;12789;42.610;23.040;2023-06-05T05:45:40;129.65;;;33.20;;
10479;SDS011;12789;42.610;23.040;2023-06-05T05:48:09;120.22;;;30.08;;
10479;SDS011;12789;42.610;23.040;2023-06-05T05:50:36;121.40;;;30.88;;
10479;SDS011;12789;42.610;23.040;2023-06-05T05:53:03;107.30;;;29.08;;
10479;SDS011;12789;42.610;23.040;2023-06-05T05:55:30;112.75;;;31.27;;
10479;SDS011;12789;42.610;23.040;2023-06-05T05:57:58;101.05;;;30.20;;
10479;SDS011;12789;42.610;23.040;2023-06-05T06:00:25;110.78;;;31.13;;
10479;SDS011;12789;42.610;23.040;2023-06-05T06:02:53;104.88;;;31.15;;
10479;SDS011;12789;42.610;23.040;2023-06-05T06:05:20;119.00;;;31.85;;
10479;SDS011;12789;42.610;23.040;2023-06-05T06:07:47;116.30;;;32.90;;
10479;SDS011;12789;42.610;23.040;2023-06-05T06:10:14;113.72;;;30.05;;
10479;SDS011;12789;42.610;23.040;2023-06-05T06:12:40;96.35;;;29.80;;
10479;SDS011;12789;42.610;23.040;2023-06-05T06:15:09;93.32;;;28.83;;
10479;SDS011;12789;42.610;23.040;2023-06-05T06:17:36;86.18;;;27.70;;
10479;SDS011;12789;42.610;23.040;2023-06-05T06:20:06;90.10;;;29.52;;
10479;SDS011;12789;42.610;23.040;2023-06-05T06:22:38;81.53;;;30.20;;
10479;SDS011;12789;42.610;23.040;2023-06-05T06:25:05;73.85;;;27.38;;
10479;SDS011;12789;42.610;23.040;2023-06-05T06:27:32;78.80;;;28.23;;
10479;SDS011;12789;42.610;23.040;2023-06-05T06:29:59;91.38;;;29.80;;
10479;SDS011;12789;42.610;23.040;2023-06-05T06:32:28;79.97;;;27.98;;
10479;SDS011;12789;42.610;23.040;2023-06-05T06:34:55;70.80;;;28.60;;
10479;SDS011;12789;42.610;23.040;2023-06-05T06:37:22;88.65;;;28.48;;
10479;SDS011;12789;42.610;23.040;2023-06-05T06:39:49;77.53;;;28.13;;
10479;SDS011;12789;42.610;23.040;2023-06-05T06:42:16;55.22;;;25.83;;
10479;SDS011;12789;42.610;23.040;2023-06-05T06:44:42;37.50;;;21.25;;
10479;SDS011;12789;42.610;23.040;2023-06-05T06:47:09;25.95;;;16.75;;
10479;SDS011;12789;42.610;23.040;2023-06-05T06:49:38;34.30;;;18.00;;
10479;SDS011;12789;42.610;23.040;2023-06-05T06:52:05;31.70;;;19.23;;
10479;SDS011;12789;42.610;23.040;2023-06-05T06:54:32;25.55;;;18.73;;
10479;SDS011;12789;42.610;23.040;2023-06-05T06:56:59;28.83;;;19.95;;
10479;SDS011;12789;42.610;23.040;2023-06-05T06:59:27;31.38;;;21.40;;
10479;SDS011;12789;42.610;23.040;2023-06-05T07:02:09;26.35;;;19.58;;
10479;SDS011;12789;42.610;23.040;2023-06-05T07:04:38;26.65;;;19.50;;
10479;SDS011;12789;42.610;23.040;2023-06-05T07:07:07;36.13;;;19.45;;
10479;SDS011;12789;42.610;23.040;2023-06-05T07:09:36;27.77;;;18.83;;
10479;SDS011;12789;42.610;23.040;2023-06-05T07:12:03;22.27;;;15.50;;
10479;SDS011;12789;42.610;23.040;2023-06-05T07:14:31;21.95;;;13.75;;
10479;SDS011;12789;42.610;23.040;2023-06-05T07:16:58;22.50;;;15.48;;
10479;SDS011;12789;42.610;23.040;2023-06-05T07:19:26;23.77;;;15.13;;
10479;SDS011;12789;42.610;23.040;2023-06-05T07:21:55;25.35;;;17.67;;
10479;SDS011;12789;42.610;23.040;2023-06-05T07:24:22;27.40;;;17.10;;
10479;SDS011;12789;42.610;23.040;2023-06-05T07:26:53;23.55;;;16.42;;
10479;SDS011;12789;42.610;23.040;2023-06-05T07:29:20;20.73;;;15.35;;
10479;SDS011;12789;42.610;23.040;2023-06-05T07:31:48;24.90;;;16.30;;
10479;SDS011;12789;42.610;23.040;2023-06-05T07:34:14;30.20;;;15.88;;
10479;SDS011;12789;42.610;23.040;2023-06-05T07:36:43;20.00;;;16.20;;
10479;SDS011;12789;42.610;23.040;2023-06-05T07:39:12;20.13;;;17.88;;
10479;SDS011;12789;42.610;23.040;2023-06-05T07:41:39;19.98;;;16.98;;
10479;SDS011;12789;42.610;23.040;2023-06-05T07:44:07;22.08;;;16.50;;
10479;SDS011;12789;42.610;23.040;2023-06-05T07:46:34;18.90;;;16.88;;
10479;SDS011;12789;42.610;23.040;2023-06-05T07:49:00;25.50;;;18.30;;
10479;SDS011;12789;42.610;23.040;2023-06-05T07:51:28;18.60;;;16.63;;
10479;SDS011;12789;42.610;23.040;2023-06-05T07:53:55;19.30;;;17.13;;
10479;SDS011;12789;42.610;23.040;2023-06-05T07:56:23;23.65;;;17.40;;
10479;SDS011;12789;42.610;23.040;2023-06-05T07:58:50;22.95;;;16.95;;
10479;SDS011;12789;42.610;23.040;2023-06-05T08:01:20;18.35;;;16.13;;
10479;SDS011;12789;42.610;23.040;2023-06-05T08:03:47;18.23;;;16.33;;
10479;SDS011;12789;42.610;23.040;2023-06-05T08:06:14;19.20;;;15.15;;
10479;SDS011;12789;42.610;23.040;2023-06-05T08:08:41;21.52;;;15.82;;
10479;SDS011;12789;42.610;23.040;2023-06-05T08:11:09;18.40;;;14.63;;
10479;SDS011;12789;42.610;23.040;2023-06-05T08:13:40;13.85;;;12.60;;
10479;SDS011;12789;42.610;23.040;2023-06-05T08:16:07;16.13;;;13.35;;
10479;SDS011;12789;42.610;23.040;2023-06-05T08:18:34;15.45;;;11.15;;
10479;SDS011;12789;42.610;23.040;2023-06-05T08:21:01;14.50;;;10.52;;
10479;SDS011;12789;42.610;23.040;2023-06-05T08:23:28;12.35;;;11.10;;
10479;SDS011;12789;42.610;23.040;2023-06-05T08:25:57;14.43;;;10.77;;
10479;SDS011;12789;42.610;23.040;2023-06-05T08:28:26;11.93;;;10.77;;
10479;SDS011;12789;42.610;23.040;2023-06-05T08:30:55;12.13;;;10.90;;
10479;SDS011;12789;42.610;23.040;2023-06-05T08:33:22;11.82;;;10.73;;
10479;SDS011;12789;42.610;23.040;2023-06-05T08:35:48;10.48;;;9.52;;
10479;SDS011;12789;42.610;23.040;2023-06-05T08:38:16;10.40;;;9.35;;
10479;SDS011;12789;42.610;23.040;2023-06-05T08:40:45;10.63;;;9.50;;
10479;SDS011;12789;42.610;23.040;2023-06-05T08:43:15;11.45;;;9.25;;
10479;SDS011;12789;42.610;23.040;2023-06-05T08:45:42;11.85;;;9.30;;
10479;SDS011;12789;42.610;23.040;2023-06-05T08:48:10;10.35;;;8.95;;
10479;SDS011;12789;42.610;23.040;2023-06-05T08:50:41;8.98;;;8.13;;
10479;SDS011;12789;42.610;23.040;2023-06-05T08:53:09;9.60;;;8.70;;
10479;SDS011;12789;42.610;23.040;2023-06-05T08:55:38;8.73;;;7.90;;
10479;SDS011;12789;42.610;23.040;2023-06-05T08:58:05;12.63;;;8.63;;
10479;SDS011;12789;42.610;23.040;2023-06-05T09:00:32;9.38;;;8.25;;
10479;SDS011;12789;42.610;23.040;2023-06-05T09:02:59;9.65;;;7.97;;
10479;SDS011;12789;42.610;23.040;2023-06-05T09:05:28;8.65;;;7.85;;
10479;SDS011;12789;42.610;23.040;2023-06-05T09:07:55;11.10;;;8.38;;
10479;SDS011;12789;42.610;23.040;2023-06-05T09:10:22;8.90;;;7.78;;
10479;SDS011;12789;42.610;23.040;2023-06-05T09:12:55;8.38;;;7.57;;
10479;SDS011;12789;42.610;23.040;2023-06-05T09:15:22;8.55;;;7.72;;
10479;SDS011;12789;42.610;23.040;2023-06-05T09:18:01;10.77;;;7.75;;
10479;SDS011;12789;42.610;23.040;2023-06-05T09:20:29;8.13;;;7.43;;
10479;SDS011;12789;42.610;23.040;2023-06-05T09:22:56;9.63;;;7.25;;
10479;SDS011;12789;42.610;23.040;2023-06-05T09:25:23;7.15;;;6.45;;
10479;SDS011;12789;42.610;23.040;2023-06-05T09:27:59;7.70;;;6.65;;
10479;SDS011;12789;42.610;23.040;2023-06-05T09:30:31;8.73;;;6.95;;
10479;SDS011;12789;42.610;23.040;2023-06-05T09:33:07;7.50;;;6.75;;
10479;SDS011;12789;42.610;23.040;2023-06-05T09:35:35;6.80;;;6.10;;
10479;SDS011;12789;42.610;23.040;2023-06-05T09:38:04;6.40;;;5.78;;
10479;SDS011;12789;42.610;23.040;2023-06-05T09:40:43;7.43;;;5.78;;
10479;SDS011;12789;42.610;23.040;2023-06-05T09:43:13;7.55;;;6.00;;
10479;SDS011;12789;42.610;23.040;2023-06-05T09:45:41;8.02;;;6.35;;
10479;SDS011;12789;42.610;23.040;2023-06-05T09:48:12;7.97;;;6.03;;
10479;SDS011;12789;42.610;23.040;2023-06-05T09:50:41;6.75;;;6.15;;
10479;SDS011;12789;42.610;23.040;2023-06-05T09:53:08;6.68;;;6.03;;
10479;SDS011;12789;42.610;23.040;2023-06-05T09:55:36;7.97;;;5.57;;
10479;SDS011;12789;42.610;23.040;2023-06-05T09:58:03;6.35;;;5.68;;
10479;SDS011;12789;42.610;23.040;2023-06-05T10:00:36;7.53;;;5.97;;
10479;SDS011;12789;42.610;23.040;2023-06-05T10:03:04;6.00;;;5.40;;
10479;SDS011;12789;42.610;23.040;2023-06-05T10:05:36;6.72;;;6.13;;
10479;SDS011;12789;42.610;23.040;2023-06-05T10:08:04;6.63;;;6.03;;
10479;SDS011;12789;42.610;23.040;2023-06-05T10:10:32;7.57;;;6.03;;
10479;SDS011;12789;42.610;23.040;2023-06-05T10:12:59;9.88;;;6.60;;
10479;SDS011;12789;42.610;23.040;2023-06-05T10:15:27;9.65;;;7.00;;
10479;SDS011;12789;42.610;23.040;2023-06-05T10:17:54;11.30;;;5.88;;
10479;SDS011;12789;42.610;23.040;2023-06-05T10:20:21;6.68;;;5.90;;
10479;SDS011;12789;42.610;23.040;2023-06-05T10:22:48;6.63;;;5.93;;
10479;SDS011;12789;42.610;23.040;2023-06-05T10:25:18;8.40;;;6.30;;
10479;SDS011;12789;42.610;23.040;2023-06-05T10:27:50;8.52;;;6.50;;
10479;SDS011;12789;42.610;23.040;2023-06-05T10:30:39;6.65;;;5.75;;
10479;SDS011;12789;42.610;23.040;2023-06-05T10:33:17;8.35;;;6.88;;
10479;SDS011;12789;42.610;23.040;2023-06-05T10:35:48;10.93;;;6.85;;
10479;SDS011;12789;42.610;23.040;2023-06-05T10:38:18;9.77;;;7.25;;
10479;SDS011;12789;42.610;23.040;2023-06-05T10:40:51;9.05;;;6.88;;
10479;SDS011;12789;42.610;23.040;2023-06-05T10:43:30;8.82;;;6.78;;
10479;SDS011;12789;42.610;23.040;2023-06-05T10:45:57;10.88;;;6.75;;
10479;SDS011;12789;42.610;23.040;2023-06-05T10:51:31;19.13;;;8.45;;
10479;SDS011;12789;42.610;23.040;2023-06-05T10:53:58;18.15;;;8.25;;
10479;SDS011;12789;42.610;23.040;2023-06-05T10:59:12;14.68;;;7.00;;
10479;SDS011;12789;42.610;23.040;2023-06-05T11:01:39;9.88;;;6.28;;
10479;SDS011;12789;42.610;23.040;2023-06-05T11:04:06;11.90;;;6.55;;
10479;SDS011;12789;42.610;23.040;2023-06-05T11:06:33;14.27;;;7.70;;
10479;SDS011;12789;42.610;23.040;2023-06-05T11:09:06;15.55;;;7.32;;
10479;SDS011;12789;42.610;23.040;2023-06-05T11:14:22;19.17;;;7.28;;
10479;SDS011;12789;42.610;23.040;2023-06-05T11:16:49;12.55;;;7.97;;
10479;SDS011;12789;42.610;23.040;2023-06-05T11:22:04;21.10;;;13.48;;
10479;SDS011;12789;42.610;23.040;2023-06-05T11:24:34;17.83;;;12.48;;
10479;SDS011;12789;42.610;23.040;2023-06-05T11:27:01;23.55;;;13.02;;
10479;SDS011;12789;42.610;23.040;2023-06-05T11:29:31;18.38;;;10.60;;
10479;SDS011;12789;42.610;23.040;2023-06-05T11:31:58;14.75;;;10.15;;
10479;SDS011;12789;42.610;23.040;2023-06-05T11:34:25;20.50;;;11.32;;
10479;SDS011;12789;42.610;23.040;2023-06-05T11:36:54;22.30;;;12.55;;
10479;SDS011;12789;42.610;23.040;2023-06-05T11:39:21;16.48;;;11.60;;
10479;SDS011;12789;42.610;23.040;2023-06-05T11:41:48;16.63;;;9.82;;
10479;SDS011;12789;42.610;23.040;2023-06-05T11:44:29;14.75;;;9.88;;
10479;SDS011;12789;42.610;23.040;2023-06-05T11:46:59;9.98;;;8.93;;
10479;SDS011;12789;42.610;23.040;2023-06-05T11:49:27;14.30;;;7.70;;
10479;SDS011;12789;42.610;23.040;2023-06-05T11:51:54;10.18;;;8.05;;
10479;SDS011;12789;42.610;23.040;2023-06-05T11:54:27;8.90;;;7.97;;
10479;SDS011;12789;42.610;23.040;2023-06-05T11:57:01;8.75;;;7.85;;
10479;SDS011;12789;42.610;23.040;2023-06-05T11:59:33;15.57;;;8.40;;
10479;SDS011;12789;42.610;23.040;2023-06-05T12:02:02;12.77;;;7.63;;
10479;SDS011;12789;42.610;23.040;2023-06-05T12:04:29;13.55;;;8.30;;
10479;SDS011;12789;42.610;23.040;2023-06-05T12:06:56;8.13;;;6.78;;
10479;SDS011;12789;42.610;23.040;2023-06-05T12:09:25;7.10;;;6.50;;
10479;SDS011;12789;42.610;23.040;2023-06-05T12:11:52;6.82;;;5.85;;
10479;SDS011;12789;42.610;23.040;2023-06-05T12:14:28;11.27;;;6.63;;
10479;SDS011;12789;42.610;23.040;2023-06-05T12:16:56;9.75;;;6.70;;
10479;SDS011;12789;42.610;23.040;2023-06-05T12:19:24;7.70;;;6.00;;
10479;SDS011;12789;42.610;23.040;2023-06-05T12:21:51;8.32;;;5.70;;
10479;SDS011;12789;42.610;23.040;2023-06-05T12:24:27;8.88;;;5.68;;
10479;SDS011;12789;42.610;23.040;2023-06-05T12:26:54;7.22;;;6.05;;
10479;SDS011;12789;42.610;23.040;2023-06-05T12:29:22;9.38;;;5.53;;
10479;SDS011;12789;42.610;23.040;2023-06-05T12:31:49;7.97;;;5.40;;
10479;SDS011;12789;42.610;23.040;2023-06-05T12:34:15;8.05;;;5.97;;
10479;SDS011;12789;42.610;23.040;2023-06-05T12:36:44;8.23;;;6.55;;
10479;SDS011;12789;42.610;23.040;2023-06-05T12:39:13;9.05;;;6.10;;
10479;SDS011;12789;42.610;23.040;2023-06-05T12:41:41;8.15;;;6.85;;
10479;SDS011;12789;42.610;23.040;2023-06-05T12:44:09;7.18;;;6.30;;
10479;SDS011;12789;42.610;23.040;2023-06-05T12:46:39;10.32;;;6.93;;
10479;SDS011;12789;42.610;23.040;2023-06-05T12:49:05;7.93;;;6.43;;
10479;SDS011;12789;42.610;23.040;2023-06-05T12:51:32;7.40;;;6.65;;
10479;SDS011;12789;42.610;23.040;2023-06-05T12:54:01;13.13;;;6.90;;
10479;SDS011;12789;42.610;23.040;2023-06-05T12:56:28;13.90;;;7.68;;
10479;SDS011;12789;42.610;23.040;2023-06-05T12:58:56;12.10;;;7.10;;
10479;SDS011;12789;42.610;23.040;2023-06-05T13:01:24;12.45;;;6.72;;
10479;SDS011;12789;42.610;23.040;2023-06-05T13:03:51;9.23;;;7.45;;
10479;SDS011;12789;42.610;23.040;2023-06-05T13:06:18;11.20;;;7.18;;
10479;SDS011;12789;42.610;23.040;2023-06-05T13:08:46;12.68;;;6.72;;
10479;SDS011;12789;42.610;23.040;2023-06-05T13:11:15;13.85;;;7.25;;
10479;SDS011;12789;42.610;23.040;2023-06-05T13:13:41;12.00;;;6.88;;
10479;SDS011;12789;42.610;23.040;2023-06-05T13:16:09;10.38;;;7.05;;
10479;SDS011;12789;42.610;23.040;2023-06-05T13:18:36;10.65;;;7.10;;
10479;SDS011;12789;42.610;23.040;2023-06-05T13:21:03;11.07;;;6.65;;
10479;SDS011;12789;42.610;23.040;2023-06-05T13:23:30;13.95;;;7.40;;
10479;SDS011;12789;42.610;23.040;2023-06-05T13:25:57;9.57;;;7.03;;
10479;SDS011;12789;42.610;23.040;2023-06-05T13:28:25;11.73;;;7.18;;
10479;SDS011;12789;42.610;23.040;2023-06-05T13:30:52;11.00;;;6.25;;
10479;SDS011;12789;42.610;23.040;2023-06-05T13:33:21;11.18;;;6.35;;
10479;SDS011;12789;42.610;23.040;2023-06-05T13:35:49;10.52;;;7.22;;
10479;SDS011;12789;42.610;23.040;2023-06-05T13:38:17;13.80;;;7.25;;
10479;SDS011;12789;42.610;23.040;2023-06-05T13:40:44;14.20;;;6.95;;
10479;SDS011;12789;42.610;23.040;2023-06-05T13:43:13;12.07;;;5.88;;
10479;SDS011;12789;42.610;23.040;2023-06-05T13:45:42;10.52;;;6.10;;
10479;SDS011;12789;42.610;23.040;2023-06-05T13:48:08;11.93;;;5.97;;
10479;SDS011;12789;42.610;23.040;2023-06-05T13:50:35;11.13;;;6.03;;
10479;SDS011;12789;42.610;23.040;2023-06-05T13:53:02;13.18;;;6.35;;
10479;SDS011;12789;42.610;23.040;2023-06-05T13:55:29;8.43;;;5.40;;
10479;SDS011;12789;42.610;23.040;2023-06-05T13:57:56;10.52;;;5.72;;
10479;SDS011;12789;42.610;23.040;2023-06-05T14:00:26;8.88;;;5.00;;
10479;SDS011;12789;42.610;23.040;2023-06-05T14:02:54;10.13;;;4.95;;
10479;SDS011;12789;42.610;23.040;2023-06-05T14:05:22;8.13;;;4.88;;
10479;SDS011;12789;42.610;23.040;2023-06-05T14:07:50;5.45;;;4.93;;
10479;SDS011;12789;42.610;23.040;2023-06-05T14:10:18;6.60;;;5.03;;
10479;SDS011;12789;42.610;23.040;2023-06-05T14:12:44;8.73;;;4.57;;
10479;SDS011;12789;42.610;23.040;2023-06-05T14:15:12;8.02;;;4.78;;
10479;SDS011;12789;42.610;23.040;2023-06-05T14:17:42;6.72;;;4.38;;
10479;SDS011;12789;42.610;23.040;2023-06-05T14:20:11;9.52;;;4.80;;
10479;SDS011;12789;42.610;23.040;2023-06-05T14:22:38;5.63;;;4.45;;
10479;SDS011;12789;42.610;23.040;2023-06-05T14:25:05;7.07;;;4.68;;
10479;SDS011;12789;42.610;23.040;2023-06-05T14:27:33;11.43;;;4.70;;
10479;SDS011;12789;42.610;23.040;2023-06-05T14:30:00;8.30;;;4.10;;
10479;SDS011;12789;42.610;23.040;2023-06-05T14:32:28;5.68;;;4.40;;